Kismanyo, Somalia
Current Conditions -  °F | °C
As of 1:36 PM on Tuesday 21 Oct 2014 (Local Time) from KQVF Reporting Station
Scattered Clouds Scattered Clouds  
Wind Chill: 86°   Ceiling: Unl
Heat Index: 90°   Visibility: 6mi
Dew Point: 70°   Wind: 9mph
Humidity: 58%   Direction: 200°SSW
Pressure: 29.95"   Gusts: 23mph
Location:  0.37°S, 42.53°E
Report Text: KQVF 211036Z AUTO 20008G20KT 160V220 9999 FEW030 SCT040 30/21 A2995 RMK AO2 SLP141 PWINO $
Loading
Personal Weather Stations






























Interactive Weather Map
Tropical Storm Tracking
New forecast layout! Learn more

10-Day Weather Forecast

Advertisements
Track Severe Weather on mobile